Airfield :
LOGIN :

Register | Disclaimer

   EN    FR    IT 

 










Legend :    VFR   Marginal VFR   IFR   Intensive IFR   Very Intensive IFR
Visi :
Ceiling :
>= 8 km
>= 3000ft
5 to 8 km
1000 to 3000 ft
1500m to 5 km
500 to 1000 ft
800 to 1500m
200 to 500 ft
< 800m
< 200 ft
Symbols :   Thunderstorms  Fog  Heavy snow  Heavy precipitations  Wind > 20 kt
SIGMETs :     Misc.  Thunderstorms  Icing  Turbulence  Mountain Waves  Volcanic Ashes







- Airport Elevation : 425 ft
- IATA code : DTM


EDLW - Dortmund

CURRENT METAR :
  • 201650Z 11004KT 9999 -DZ FEW010 BKN029 BKN034 02/00 Q0999

EXPIRED METARs :
  • 201620Z 13004KT 9999 -DZ SCT010 BKN026 03/01 Q0999
  • 201550Z 13005KT 9000 -DZ SCT010 BKN024 BKN029 03/01 Q0999
  • 201520Z VRB05KT 9000 -DZ BKN010 BKN029 03/01 Q1000
  • 201450Z 17006KT 9999 -DZ SCT011 BKN039 03/01 Q1000
  • 201420Z 18009KT 9999 -DZ SCT014 03/01 Q1000
  • 201350Z 18007KT 150V210 9999 FEW015 SCT045 04/00 Q1001

TAF AMD TAF EDLW
Valid from the 20 at 15:00 until the 21 at 12:00 UTC


201550Z 2015/2112 13005KT 9999 SCT010 BKN015
BECMG 2016/2020 32006KT BKN007
TEMPO 2016/2024 4000 -RA
TEMPO 2100/2108 2500 SNRA BKN004
BECMG 2104/2106 26007KT BKN015
No reported NOTAMs for that airfield.
1 SIGMET reported for the Langen FIR (EDGG) :
 
Severe icing
EDGG SIGMET 2 VALID 201400/201800 EDZF
EDGG LANGEN FIR SEV ICE FCST WI N5206 E00755 - N5121 E01028 - N5015 E01016 - N4904 E00756 - N4906 E00756 - N4937 E00622 - N5153 E00608 - N5206 E00755 2000FT/FL160 MOV NE NC=



MET'MAP, your aeronautical weather chart ! - Copyright ORBIFLY December 2007 - Disclaimer

ORBIFLY MET'MAP TEAM :

Programming & Development : Alexandra Zaïnal
Concept & Development : Baudouin d'Aumeries
Co-Development & Prog : Marc-Olivier Méhu
Technical & hardware support : Manuel Goepfert

Contact : metmap@orbifly.com




SOURCES & CREDITS :

   NOAA